sensor_id;sensor_type;location;lat;lon;timestamp;P1;durP1;ratioP1;P2;durP2;ratioP2
11665;SDS011;5889;51.350;6.708;2023-08-06T00:01:13;8.70;;;3.60;;
11665;SDS011;5889;51.350;6.708;2023-08-06T00:03:42;6.18;;;4.00;;
11665;SDS011;5889;51.350;6.708;2023-08-06T00:06:08;4.97;;;3.50;;
11665;SDS011;5889;51.350;6.708;2023-08-06T00:08:35;4.83;;;3.43;;
11665;SDS011;5889;51.350;6.708;2023-08-06T00:11:02;6.33;;;3.30;;
11665;SDS011;5889;51.350;6.708;2023-08-06T00:13:29;5.73;;;3.90;;
11665;SDS011;5889;51.350;6.708;2023-08-06T00:16:07;6.03;;;3.90;;
11665;SDS011;5889;51.350;6.708;2023-08-06T00:18:35;7.22;;;3.72;;
11665;SDS011;5889;51.350;6.708;2023-08-06T00:21:03;6.65;;;3.95;;
11665;SDS011;5889;51.350;6.708;2023-08-06T00:23:30;6.60;;;3.67;;
11665;SDS011;5889;51.350;6.708;2023-08-06T00:25:58;6.40;;;3.60;;
11665;SDS011;5889;51.350;6.708;2023-08-06T00:28:25;3.83;;;3.40;;
11665;SDS011;5889;51.350;6.708;2023-08-06T00:30:52;5.22;;;3.70;;
11665;SDS011;5889;51.350;6.708;2023-08-06T00:33:20;8.18;;;3.70;;
11665;SDS011;5889;51.350;6.708;2023-08-06T00:35:47;8.68;;;3.90;;
11665;SDS011;5889;51.350;6.708;2023-08-06T00:38:15;6.85;;;3.75;;
11665;SDS011;5889;51.350;6.708;2023-08-06T00:40:42;6.05;;;3.60;;
11665;SDS011;5889;51.350;6.708;2023-08-06T00:43:09;4.90;;;3.45;;
11665;SDS011;5889;51.350;6.708;2023-08-06T00:45:36;5.77;;;3.60;;
11665;SDS011;5889;51.350;6.708;2023-08-06T00:48:04;4.20;;;3.45;;
11665;SDS011;5889;51.350;6.708;2023-08-06T00:50:32;5.63;;;3.63;;
11665;SDS011;5889;51.350;6.708;2023-08-06T00:52:59;8.17;;;3.63;;
11665;SDS011;5889;51.350;6.708;2023-08-06T00:55:27;7.83;;;3.87;;
11665;SDS011;5889;51.350;6.708;2023-08-06T00:57:54;3.57;;;3.03;;
11665;SDS011;5889;51.350;6.708;2023-08-06T01:00:22;4.57;;;4.07;;
11665;SDS011;5889;51.350;6.708;2023-08-06T01:02:50;4.93;;;3.97;;
11665;SDS011;5889;51.350;6.708;2023-08-06T01:05:17;3.80;;;3.33;;
11665;SDS011;5889;51.350;6.708;2023-08-06T01:07:46;6.53;;;3.65;;
11665;SDS011;5889;51.350;6.708;2023-08-06T01:10:28;11.57;;;3.80;;
11665;SDS011;5889;51.350;6.708;2023-08-06T01:13:05;4.70;;;3.30;;
11665;SDS011;5889;51.350;6.708;2023-08-06T01:15:43;3.70;;;3.13;;
11665;SDS011;5889;51.350;6.708;2023-08-06T01:18:12;5.30;;;3.33;;
11665;SDS011;5889;51.350;6.708;2023-08-06T01:20:42;3.90;;;3.37;;
11665;SDS011;5889;51.350;6.708;2023-08-06T01:23:09;3.57;;;3.00;;
11665;SDS011;5889;51.350;6.708;2023-08-06T01:25:46;3.97;;;3.27;;
11665;SDS011;5889;51.350;6.708;2023-08-06T01:28:23;5.13;;;3.00;;
11665;SDS011;5889;51.350;6.708;2023-08-06T01:31:07;3.73;;;3.20;;
11665;SDS011;5889;51.350;6.708;2023-08-06T01:33:42;5.93;;;3.40;;
11665;SDS011;5889;51.350;6.708;2023-08-06T01:36:13;5.77;;;2.87;;
11665;SDS011;5889;51.350;6.708;2023-08-06T01:38:43;5.57;;;3.47;;
11665;SDS011;5889;51.350;6.708;2023-08-06T01:41:10;5.70;;;3.28;;
11665;SDS011;5889;51.350;6.708;2023-08-06T01:43:37;5.43;;;3.10;;
11665;SDS011;5889;51.350;6.708;2023-08-06T01:46:04;4.17;;;2.93;;
11665;SDS011;5889;51.350;6.708;2023-08-06T01:48:31;6.07;;;3.00;;
11665;SDS011;5889;51.350;6.708;2023-08-06T01:50:58;4.60;;;3.07;;
11665;SDS011;5889;51.350;6.708;2023-08-06T01:53:26;4.50;;;2.72;;
11665;SDS011;5889;51.350;6.708;2023-08-06T01:55:56;5.80;;;3.37;;
11665;SDS011;5889;51.350;6.708;2023-08-06T01:58:23;5.00;;;3.10;;
11665;SDS011;5889;51.350;6.708;2023-08-06T02:00:50;4.60;;;2.53;;
11665;SDS011;5889;51.350;6.708;2023-08-06T02:03:17;4.17;;;2.90;;
11665;SDS011;5889;51.350;6.708;2023-08-06T02:05:44;5.90;;;3.40;;
11665;SDS011;5889;51.350;6.708;2023-08-06T02:08:11;3.23;;;2.80;;
11665;SDS011;5889;51.350;6.708;2023-08-06T02:10:40;5.07;;;3.30;;
11665;SDS011;5889;51.350;6.708;2023-08-06T02:13:07;4.30;;;2.83;;
11665;SDS011;5889;51.350;6.708;2023-08-06T02:15:34;4.37;;;2.47;;
11665;SDS011;5889;51.350;6.708;2023-08-06T02:18:01;3.60;;;3.07;;
11665;SDS011;5889;51.350;6.708;2023-08-06T02:20:28;4.17;;;2.87;;
11665;SDS011;5889;51.350;6.708;2023-08-06T02:22:55;6.40;;;2.83;;
11665;SDS011;5889;51.350;6.708;2023-08-06T02:25:22;4.68;;;2.88;;
11665;SDS011;5889;51.350;6.708;2023-08-06T02:27:54;4.40;;;3.47;;
11665;SDS011;5889;51.350;6.708;2023-08-06T02:30:21;8.23;;;3.37;;
11665;SDS011;5889;51.350;6.708;2023-08-06T02:32:48;4.20;;;2.95;;
11665;SDS011;5889;51.350;6.708;2023-08-06T02:35:15;5.82;;;3.30;;
11665;SDS011;5889;51.350;6.708;2023-08-06T02:37:42;5.30;;;3.38;;
11665;SDS011;5889;51.350;6.708;2023-08-06T02:40:10;6.10;;;3.22;;
11665;SDS011;5889;51.350;6.708;2023-08-06T02:42:37;4.37;;;3.07;;
11665;SDS011;5889;51.350;6.708;2023-08-06T02:45:06;3.23;;;2.73;;
11665;SDS011;5889;51.350;6.708;2023-08-06T02:47:34;4.73;;;2.70;;
11665;SDS011;5889;51.350;6.708;2023-08-06T02:50:01;5.40;;;3.10;;
11665;SDS011;5889;51.350;6.708;2023-08-06T02:52:27;3.85;;;3.00;;
11665;SDS011;5889;51.350;6.708;2023-08-06T02:54:54;3.50;;;2.70;;
11665;SDS011;5889;51.350;6.708;2023-08-06T02:57:24;4.83;;;3.30;;
11665;SDS011;5889;51.350;6.708;2023-08-06T02:59:51;5.03;;;3.20;;
11665;SDS011;5889;51.350;6.708;2023-08-06T03:02:19;4.57;;;3.10;;
11665;SDS011;5889;51.350;6.708;2023-08-06T03:04:46;6.00;;;3.13;;
11665;SDS011;5889;51.350;6.708;2023-08-06T03:07:13;11.83;;;3.53;;
11665;SDS011;5889;51.350;6.708;2023-08-06T03:09:40;5.23;;;3.63;;
11665;SDS011;5889;51.350;6.708;2023-08-06T03:12:07;4.47;;;3.20;;
11665;SDS011;5889;51.350;6.708;2023-08-06T03:14:35;4.67;;;3.03;;
11665;SDS011;5889;51.350;6.708;2023-08-06T03:17:02;4.43;;;3.30;;
11665;SDS011;5889;51.350;6.708;2023-08-06T03:19:31;6.87;;;3.73;;
11665;SDS011;5889;51.350;6.708;2023-08-06T03:21:58;5.10;;;3.63;;
11665;SDS011;5889;51.350;6.708;2023-08-06T03:24:25;8.40;;;3.77;;
11665;SDS011;5889;51.350;6.708;2023-08-06T03:26:52;3.83;;;3.20;;
11665;SDS011;5889;51.350;6.708;2023-08-06T03:29:19;4.57;;;3.20;;
11665;SDS011;5889;51.350;6.708;2023-08-06T03:31:46;6.07;;;4.00;;
11665;SDS011;5889;51.350;6.708;2023-08-06T03:34:13;5.27;;;3.50;;
11665;SDS011;5889;51.350;6.708;2023-08-06T03:36:42;4.70;;;3.23;;
11665;SDS011;5889;51.350;6.708;2023-08-06T03:39:09;4.10;;;3.20;;
11665;SDS011;5889;51.350;6.708;2023-08-06T03:41:36;5.23;;;3.43;;
11665;SDS011;5889;51.350;6.708;2023-08-06T03:44:03;5.73;;;3.77;;
11665;SDS011;5889;51.350;6.708;2023-08-06T03:46:30;4.57;;;3.43;;
11665;SDS011;5889;51.350;6.708;2023-08-06T03:48:59;8.13;;;3.00;;
11665;SDS011;5889;51.350;6.708;2023-08-06T03:51:25;5.57;;;3.27;;
11665;SDS011;5889;51.350;6.708;2023-08-06T03:53:56;5.60;;;3.30;;
11665;SDS011;5889;51.350;6.708;2023-08-06T03:56:23;4.60;;;3.08;;
11665;SDS011;5889;51.350;6.708;2023-08-06T03:58:49;4.57;;;3.10;;
11665;SDS011;5889;51.350;6.708;2023-08-06T04:01:16;4.97;;;3.53;;
11665;SDS011;5889;51.350;6.708;2023-08-06T04:03:43;6.70;;;3.43;;
11665;SDS011;5889;51.350;6.708;2023-08-06T04:06:10;4.03;;;3.07;;
11665;SDS011;5889;51.350;6.708;2023-08-06T04:08:37;5.87;;;3.30;;
11665;SDS011;5889;51.350;6.708;2023-08-06T04:11:06;5.70;;;3.43;;
11665;SDS011;5889;51.350;6.708;2023-08-06T04:13:33;3.70;;;3.20;;
11665;SDS011;5889;51.350;6.708;2023-08-06T04:16:00;5.70;;;3.47;;
11665;SDS011;5889;51.350;6.708;2023-08-06T04:18:28;5.80;;;3.30;;
11665;SDS011;5889;51.350;6.708;2023-08-06T04:20:55;7.50;;;3.20;;
11665;SDS011;5889;51.350;6.708;2023-08-06T04:23:22;4.57;;;3.07;;
11665;SDS011;5889;51.350;6.708;2023-08-06T04:25:49;5.10;;;2.93;;
11665;SDS011;5889;51.350;6.708;2023-08-06T04:28:18;4.67;;;2.60;;
11665;SDS011;5889;51.350;6.708;2023-08-06T04:30:45;2.87;;;2.57;;
11665;SDS011;5889;51.350;6.708;2023-08-06T04:33:12;3.03;;;2.40;;
11665;SDS011;5889;51.350;6.708;2023-08-06T04:35:39;3.53;;;2.50;;
11665;SDS011;5889;51.350;6.708;2023-08-06T04:38:06;5.20;;;2.90;;
11665;SDS011;5889;51.350;6.708;2023-08-06T04:40:33;5.22;;;3.03;;
11665;SDS011;5889;51.350;6.708;2023-08-06T04:43:00;4.53;;;2.77;;
11665;SDS011;5889;51.350;6.708;2023-08-06T04:45:29;4.10;;;2.97;;
11665;SDS011;5889;51.350;6.708;2023-08-06T04:47:56;3.20;;;2.70;;
11665;SDS011;5889;51.350;6.708;2023-08-06T04:50:22;4.20;;;2.80;;
11665;SDS011;5889;51.350;6.708;2023-08-06T04:52:49;3.75;;;2.47;;
11665;SDS011;5889;51.350;6.708;2023-08-06T04:55:16;4.07;;;2.90;;
11665;SDS011;5889;51.350;6.708;2023-08-06T04:57:43;4.63;;;2.80;;
11665;SDS011;5889;51.350;6.708;2023-08-06T05:00:10;4.97;;;2.70;;
11665;SDS011;5889;51.350;6.708;2023-08-06T05:02:39;3.33;;;2.97;;
11665;SDS011;5889;51.350;6.708;2023-08-06T05:05:06;4.70;;;2.77;;
11665;SDS011;5889;51.350;6.708;2023-08-06T05:07:33;4.27;;;2.90;;
11665;SDS011;5889;51.350;6.708;2023-08-06T05:10:00;4.15;;;2.90;;
11665;SDS011;5889;51.350;6.708;2023-08-06T05:12:29;5.30;;;2.65;;
11665;SDS011;5889;51.350;6.708;2023-08-06T05:14:56;4.20;;;2.90;;
11665;SDS011;5889;51.350;6.708;2023-08-06T05:17:23;4.37;;;3.00;;
11665;SDS011;5889;51.350;6.708;2023-08-06T05:19:51;4.57;;;3.17;;
11665;SDS011;5889;51.350;6.708;2023-08-06T05:22:18;5.87;;;2.90;;
11665;SDS011;5889;51.350;6.708;2023-08-06T05:24:45;7.10;;;2.57;;
11665;SDS011;5889;51.350;6.708;2023-08-06T05:27:12;5.63;;;3.23;;
11665;SDS011;5889;51.350;6.708;2023-08-06T05:29:39;5.43;;;3.13;;
11665;SDS011;5889;51.350;6.708;2023-08-06T05:32:07;3.40;;;2.57;;
11665;SDS011;5889;51.350;6.708;2023-08-06T05:34:34;4.97;;;2.80;;
11665;SDS011;5889;51.350;6.708;2023-08-06T05:37:02;6.97;;;2.80;;
11665;SDS011;5889;51.350;6.708;2023-08-06T05:39:30;4.50;;;2.80;;
11665;SDS011;5889;51.350;6.708;2023-08-06T05:41:58;4.00;;;2.87;;
11665;SDS011;5889;51.350;6.708;2023-08-06T05:44:25;4.10;;;2.92;;
11665;SDS011;5889;51.350;6.708;2023-08-06T05:46:52;5.88;;;2.70;;
11665;SDS011;5889;51.350;6.708;2023-08-06T05:49:19;3.45;;;2.65;;
11665;SDS011;5889;51.350;6.708;2023-08-06T05:51:45;5.07;;;3.20;;
11665;SDS011;5889;51.350;6.708;2023-08-06T05:54:14;3.55;;;2.92;;
11665;SDS011;5889;51.350;6.708;2023-08-06T05:56:41;3.92;;;2.72;;
11665;SDS011;5889;51.350;6.708;2023-08-06T05:59:08;6.15;;;3.67;;
11665;SDS011;5889;51.350;6.708;2023-08-06T06:01:35;5.53;;;3.20;;
11665;SDS011;5889;51.350;6.708;2023-08-06T06:04:02;7.03;;;3.50;;
11665;SDS011;5889;51.350;6.708;2023-08-06T06:06:29;4.90;;;3.42;;
11665;SDS011;5889;51.350;6.708;2023-08-06T06:08:56;5.22;;;3.30;;
11665;SDS011;5889;51.350;6.708;2023-08-06T06:11:25;6.80;;;3.63;;
11665;SDS011;5889;51.350;6.708;2023-08-06T06:13:52;4.68;;;3.55;;
11665;SDS011;5889;51.350;6.708;2023-08-06T06:16:18;6.50;;;3.30;;
11665;SDS011;5889;51.350;6.708;2023-08-06T06:18:45;7.13;;;3.78;;
11665;SDS011;5889;51.350;6.708;2023-08-06T06:21:12;3.75;;;3.10;;
11665;SDS011;5889;51.350;6.708;2023-08-06T06:23:39;5.45;;;3.40;;
11665;SDS011;5889;51.350;6.708;2023-08-06T06:26:06;3.83;;;3.10;;
11665;SDS011;5889;51.350;6.708;2023-08-06T06:28:34;6.35;;;3.40;;
11665;SDS011;5889;51.350;6.708;2023-08-06T06:31:03;3.90;;;3.10;;
11665;SDS011;5889;51.350;6.708;2023-08-06T06:33:30;7.30;;;3.80;;
11665;SDS011;5889;51.350;6.708;2023-08-06T06:35:57;5.00;;;3.25;;
11665;SDS011;5889;51.350;6.708;2023-08-06T06:38:24;5.18;;;3.42;;
11665;SDS011;5889;51.350;6.708;2023-08-06T06:40:55;5.65;;;3.40;;
11665;SDS011;5889;51.350;6.708;2023-08-06T06:43:23;4.38;;;2.55;;
11665;SDS011;5889;51.350;6.708;2023-08-06T06:45:53;2.47;;;2.28;;
11665;SDS011;5889;51.350;6.708;2023-08-06T06:48:25;3.92;;;2.20;;
11665;SDS011;5889;51.350;6.708;2023-08-06T06:50:53;3.55;;;2.10;;
11665;SDS011;5889;51.350;6.708;2023-08-06T06:53:20;4.00;;;1.77;;
11665;SDS011;5889;51.350;6.708;2023-08-06T06:55:48;3.10;;;1.25;;
11665;SDS011;5889;51.350;6.708;2023-08-06T06:58:15;1.90;;;1.30;;
11665;SDS011;5889;51.350;6.708;2023-08-06T07:00:42;2.85;;;1.67;;
11665;SDS011;5889;51.350;6.708;2023-08-06T07:03:10;2.67;;;1.40;;
11665;SDS011;5889;51.350;6.708;2023-08-06T07:05:39;3.00;;;1.55;;
11665;SDS011;5889;51.350;6.708;2023-08-06T07:08:06;3.00;;;1.23;;
11665;SDS011;5889;51.350;6.708;2023-08-06T07:10:33;1.50;;;1.40;;
11665;SDS011;5889;51.350;6.708;2023-08-06T07:13:00;1.73;;;1.40;;
11665;SDS011;5889;51.350;6.708;2023-08-06T07:15:29;3.40;;;1.40;;
11665;SDS011;5889;51.350;6.708;2023-08-06T07:17:57;3.30;;;1.73;;
11665;SDS011;5889;51.350;6.708;2023-08-06T07:20:26;4.32;;;1.92;;
11665;SDS011;5889;51.350;6.708;2023-08-06T07:22:56;2.22;;;1.38;;
11665;SDS011;5889;51.350;6.708;2023-08-06T07:25:23;2.13;;;1.50;;
11665;SDS011;5889;51.350;6.708;2023-08-06T07:27:51;1.98;;;1.75;;
11665;SDS011;5889;51.350;6.708;2023-08-06T07:30:21;2.50;;;1.63;;
11665;SDS011;5889;51.350;6.708;2023-08-06T07:32:48;5.38;;;2.30;;
11665;SDS011;5889;51.350;6.708;2023-08-06T07:35:16;5.55;;;3.20;;
11665;SDS011;5889;51.350;6.708;2023-08-06T07:37:44;8.48;;;4.45;;
11665;SDS011;5889;51.350;6.708;2023-08-06T07:40:11;9.65;;;3.35;;
11665;SDS011;5889;51.350;6.708;2023-08-06T07:42:38;4.85;;;2.00;;
11665;SDS011;5889;51.350;6.708;2023-08-06T07:45:06;3.75;;;1.60;;
11665;SDS011;5889;51.350;6.708;2023-08-06T07:47:34;3.83;;;1.70;;
11665;SDS011;5889;51.350;6.708;2023-08-06T07:50:01;3.92;;;1.70;;
11665;SDS011;5889;51.350;6.708;2023-08-06T07:52:28;2.95;;;1.92;;
11665;SDS011;5889;51.350;6.708;2023-08-06T07:54:59;3.55;;;1.67;;
11665;SDS011;5889;51.350;6.708;2023-08-06T07:57:29;2.30;;;1.60;;
11665;SDS011;5889;51.350;6.708;2023-08-06T07:59:57;2.85;;;1.95;;
11665;SDS011;5889;51.350;6.708;2023-08-06T08:02:24;3.53;;;1.77;;
11665;SDS011;5889;51.350;6.708;2023-08-06T08:04:51;4.25;;;1.88;;
11665;SDS011;5889;51.350;6.708;2023-08-06T08:07:18;3.13;;;1.60;;
11665;SDS011;5889;51.350;6.708;2023-08-06T08:09:45;3.80;;;1.80;;
11665;SDS011;5889;51.350;6.708;2023-08-06T08:12:14;2.67;;;1.88;;
11665;SDS011;5889;51.350;6.708;2023-08-06T08:14:41;2.78;;;1.85;;
11665;SDS011;5889;51.350;6.708;2023-08-06T08:17:10;2.80;;;1.90;;
11665;SDS011;5889;51.350;6.708;2023-08-06T08:19:37;4.15;;;2.38;;
11665;SDS011;5889;51.350;6.708;2023-08-06T08:22:05;3.92;;;2.53;;
11665;SDS011;5889;51.350;6.708;2023-08-06T08:24:32;2.90;;;2.55;;
11665;SDS011;5889;51.350;6.708;2023-08-06T08:26:59;2.40;;;2.20;;
11665;SDS011;5889;51.350;6.708;2023-08-06T08:29:28;6.60;;;2.47;;
11665;SDS011;5889;51.350;6.708;2023-08-06T08:31:54;3.05;;;2.40;;
11665;SDS011;5889;51.350;6.708;2023-08-06T08:34:21;5.20;;;2.80;;
11665;SDS011;5889;51.350;6.708;2023-08-06T08:36:48;7.28;;;2.97;;
11665;SDS011;5889;51.350;6.708;2023-08-06T08:39:15;5.43;;;3.08;;
11665;SDS011;5889;51.350;6.708;2023-08-06T08:41:42;3.92;;;3.03;;
11665;SDS011;5889;51.350;6.708;2023-08-06T08:44:09;3.63;;;2.72;;
11665;SDS011;5889;51.350;6.708;2023-08-06T08:46:40;2.50;;;2.28;;
11665;SDS011;5889;51.350;6.708;2023-08-06T08:49:07;5.97;;;2.60;;
11665;SDS011;5889;51.350;6.708;2023-08-06T08:51:34;3.83;;;2.50;;
11665;SDS011;5889;51.350;6.708;2023-08-06T08:54:02;3.13;;;2.13;;
11665;SDS011;5889;51.350;6.708;2023-08-06T08:56:30;3.80;;;2.20;;
11665;SDS011;5889;51.350;6.708;2023-08-06T08:58:57;3.85;;;1.98;;
11665;SDS011;5889;51.350;6.708;2023-08-06T09:01:24;2.75;;;2.33;;
11665;SDS011;5889;51.350;6.708;2023-08-06T09:03:53;2.72;;;2.15;;
11665;SDS011;5889;51.350;6.708;2023-08-06T09:06:21;5.68;;;2.40;;
11665;SDS011;5889;51.350;6.708;2023-08-06T09:08:51;3.53;;;2.25;;
11665;SDS011;5889;51.350;6.708;2023-08-06T09:11:27;3.75;;;2.05;;
11665;SDS011;5889;51.350;6.708;2023-08-06T09:13:56;3.23;;;2.60;;
11665;SDS011;5889;51.350;6.708;2023-08-06T09:16:24;3.47;;;2.10;;
11665;SDS011;5889;51.350;6.708;2023-08-06T09:18:53;4.38;;;2.30;;
11665;SDS011;5889;51.350;6.708;2023-08-06T09:21:20;5.47;;;2.28;;
11665;SDS011;5889;51.350;6.708;2023-08-06T09:23:47;5.43;;;2.35;;
11665;SDS011;5889;51.350;6.708;2023-08-06T09:26:14;8.32;;;2.33;;
11665;SDS011;5889;51.350;6.708;2023-08-06T09:28:41;3.50;;;1.90;;
11665;SDS011;5889;51.350;6.708;2023-08-06T09:31:08;4.30;;;1.90;;
11665;SDS011;5889;51.350;6.708;2023-08-06T09:33:36;7.00;;;2.00;;
11665;SDS011;5889;51.350;6.708;2023-08-06T09:36:09;3.42;;;1.90;;
11665;SDS011;5889;51.350;6.708;2023-08-06T09:38:40;4.57;;;1.80;;
11665;SDS011;5889;51.350;6.708;2023-08-06T09:41:07;2.58;;;1.70;;
11665;SDS011;5889;51.350;6.708;2023-08-06T09:43:40;3.90;;;1.80;;
11665;SDS011;5889;51.350;6.708;2023-08-06T09:46:11;3.43;;;1.60;;
11665;SDS011;5889;51.350;6.708;2023-08-06T09:48:39;4.47;;;1.83;;
11665;SDS011;5889;51.350;6.708;2023-08-06T09:51:09;5.43;;;2.33;;
11665;SDS011;5889;51.350;6.708;2023-08-06T09:53:37;5.75;;;2.13;;
11665;SDS011;5889;51.350;6.708;2023-08-06T09:56:05;5.43;;;2.50;;
11665;SDS011;5889;51.350;6.708;2023-08-06T09:58:32;6.47;;;2.50;;
11665;SDS011;5889;51.350;6.708;2023-08-06T10:00:59;8.35;;;3.72;;
11665;SDS011;5889;51.350;6.708;2023-08-06T10:03:28;8.07;;;3.70;;
11665;SDS011;5889;51.350;6.708;2023-08-06T10:05:56;5.47;;;3.25;;
11665;SDS011;5889;51.350;6.708;2023-08-06T10:08:28;8.32;;;3.67;;
11665;SDS011;5889;51.350;6.708;2023-08-06T10:10:55;7.40;;;3.73;;
11665;SDS011;5889;51.350;6.708;2023-08-06T10:13:23;12.23;;;4.73;;
11665;SDS011;5889;51.350;6.708;2023-08-06T10:15:51;8.57;;;3.70;;
11665;SDS011;5889;51.350;6.708;2023-08-06T10:18:18;5.37;;;3.10;;
11665;SDS011;5889;51.350;6.708;2023-08-06T10:20:47;3.40;;;2.50;;
11665;SDS011;5889;51.350;6.708;2023-08-06T10:23:14;5.47;;;2.80;;
11665;SDS011;5889;51.350;6.708;2023-08-06T10:25:43;4.10;;;3.00;;
11665;SDS011;5889;51.350;6.708;2023-08-06T10:28:21;3.40;;;3.10;;
11665;SDS011;5889;51.350;6.708;2023-08-06T10:30:48;4.50;;;3.40;;
11665;SDS011;5889;51.350;6.708;2023-08-06T10:33:18;6.17;;;3.70;;
11665;SDS011;5889;51.350;6.708;2023-08-06T10:35:47;3.83;;;2.90;;
11665;SDS011;5889;51.350;6.708;2023-08-06T10:38:15;4.73;;;2.20;;
11665;SDS011;5889;51.350;6.708;2023-08-06T10:40:49;1.63;;;1.53;;
11665;SDS011;5889;51.350;6.708;2023-08-06T10:43:27;2.90;;;1.50;;
11665;SDS011;5889;51.350;6.708;2023-08-06T10:45:56;1.20;;;1.10;;
11665;SDS011;5889;51.350;6.708;2023-08-06T10:48:30;1.03;;;1.03;;
11665;SDS011;5889;51.350;6.708;2023-08-06T10:51:00;1.10;;;1.00;;
11665;SDS011;5889;51.350;6.708;2023-08-06T10:53:27;1.40;;;1.30;;
11665;SDS011;5889;51.350;6.708;2023-08-06T10:55:56;1.53;;;1.43;;
11665;SDS011;5889;51.350;6.708;2023-08-06T10:58:24;1.70;;;1.40;;
11665;SDS011;5889;51.350;6.708;2023-08-06T11:00:51;1.70;;;1.60;;
11665;SDS011;5889;51.350;6.708;2023-08-06T11:03:18;1.50;;;1.40;;
11665;SDS011;5889;51.350;6.708;2023-08-06T11:05:48;2.33;;;1.50;;
11665;SDS011;5889;51.350;6.708;2023-08-06T11:08:22;2.30;;;1.90;;
11665;SDS011;5889;51.350;6.708;2023-08-06T11:10:50;2.43;;;2.23;;
11665;SDS011;5889;51.350;6.708;2023-08-06T11:13:18;2.60;;;2.10;;
11665;SDS011;5889;51.350;6.708;2023-08-06T11:15:45;3.50;;;2.40;;
11665;SDS011;5889;51.350;6.708;2023-08-06T11:18:12;2.80;;;2.60;;
11665;SDS011;5889;51.350;6.708;2023-08-06T11:20:39;3.67;;;2.80;;
11665;SDS011;5889;51.350;6.708;2023-08-06T11:23:06;3.83;;;3.20;;
11665;SDS011;5889;51.350;6.708;2023-08-06T11:25:36;5.30;;;3.43;;
11665;SDS011;5889;51.350;6.708;2023-08-06T11:28:03;4.33;;;3.30;;
11665;SDS011;5889;51.350;6.708;2023-08-06T11:30:32;4.00;;;3.33;;
11665;SDS011;5889;51.350;6.708;2023-08-06T11:32:58;3.57;;;3.27;;
11665;SDS011;5889;51.350;6.708;2023-08-06T11:35:26;5.30;;;4.03;;
11665;SDS011;5889;51.350;6.708;2023-08-06T11:37:53;4.67;;;4.17;;
11665;SDS011;5889;51.350;6.708;2023-08-06T11:40:20;4.20;;;3.80;;
11665;SDS011;5889;51.350;6.708;2023-08-06T11:42:47;4.63;;;4.10;;
11665;SDS011;5889;51.350;6.708;2023-08-06T11:45:14;5.10;;;4.00;;
11665;SDS011;5889;51.350;6.708;2023-08-06T11:47:51;5.27;;;4.03;;
11665;SDS011;5889;51.350;6.708;2023-08-06T11:50:22;5.47;;;3.50;;
11665;SDS011;5889;51.350;6.708;2023-08-06T11:52:52;4.57;;;3.90;;
11665;SDS011;5889;51.350;6.708;2023-08-06T11:55:22;3.87;;;3.53;;
11665;SDS011;5889;51.350;6.708;2023-08-06T11:57:49;4.10;;;3.70;;
11665;SDS011;5889;51.350;6.708;2023-08-06T12:00:17;6.47;;;3.90;;
11665;SDS011;5889;51.350;6.708;2023-08-06T12:02:47;4.20;;;3.67;;
11665;SDS011;5889;51.350;6.708;2023-08-06T12:05:17;4.27;;;3.17;;
11665;SDS011;5889;51.350;6.708;2023-08-06T12:07:48;3.90;;;3.10;;
11665;SDS011;5889;51.350;6.708;2023-08-06T12:10:16;3.83;;;2.97;;
11665;SDS011;5889;51.350;6.708;2023-08-06T12:12:44;3.00;;;2.63;;
11665;SDS011;5889;51.350;6.708;2023-08-06T12:15:11;3.10;;;2.47;;
11665;SDS011;5889;51.350;6.708;2023-08-06T12:17:39;2.43;;;2.23;;
11665;SDS011;5889;51.350;6.708;2023-08-06T12:20:06;3.17;;;2.90;;
11665;SDS011;5889;51.350;6.708;2023-08-06T12:22:35;3.03;;;2.83;;
11665;SDS011;5889;51.350;6.708;2023-08-06T12:25:04;3.47;;;2.80;;
11665;SDS011;5889;51.350;6.708;2023-08-06T12:27:33;3.73;;;3.10;;
11665;SDS011;5889;51.350;6.708;2023-08-06T12:30:00;3.87;;;2.60;;
11665;SDS011;5889;51.350;6.708;2023-08-06T12:32:30;2.80;;;2.60;;
11665;SDS011;5889;51.350;6.708;2023-08-06T12:34:57;4.77;;;3.10;;
11665;SDS011;5889;51.350;6.708;2023-08-06T12:37:24;4.53;;;2.97;;
11665;SDS011;5889;51.350;6.708;2023-08-06T12:39:52;5.00;;;2.83;;
11665;SDS011;5889;51.350;6.708;2023-08-06T12:42:19;3.03;;;2.73;;
11665;SDS011;5889;51.350;6.708;2023-08-06T12:44:47;3.17;;;2.90;;
11665;SDS011;5889;51.350;6.708;2023-08-06T12:47:15;3.37;;;2.87;;
11665;SDS011;5889;51.350;6.708;2023-08-06T12:49:42;3.77;;;2.83;;
11665;SDS011;5889;51.350;6.708;2023-08-06T12:52:09;5.63;;;2.60;;
11665;SDS011;5889;51.350;6.708;2023-08-06T12:54:37;4.40;;;3.00;;
11665;SDS011;5889;51.350;6.708;2023-08-06T12:57:06;5.47;;;3.03;;
11665;SDS011;5889;51.350;6.708;2023-08-06T12:59:33;3.57;;;2.50;;
11665;SDS011;5889;51.350;6.708;2023-08-06T13:02:01;3.33;;;2.60;;
11665;SDS011;5889;51.350;6.708;2023-08-06T13:04:28;4.10;;;2.80;;
11665;SDS011;5889;51.350;6.708;2023-08-06T13:06:56;3.70;;;2.37;;
11665;SDS011;5889;51.350;6.708;2023-08-06T13:09:23;2.50;;;2.30;;
11665;SDS011;5889;51.350;6.708;2023-08-06T13:11:51;3.13;;;2.30;;
11665;SDS011;5889;51.350;6.708;2023-08-06T13:14:19;5.63;;;2.87;;
11665;SDS011;5889;51.350;6.708;2023-08-06T13:16:46;3.03;;;2.40;;
11665;SDS011;5889;51.350;6.708;2023-08-06T13:19:13;2.70;;;2.17;;
11665;SDS011;5889;51.350;6.708;2023-08-06T13:24:35;4.13;;;2.40;;
11665;SDS011;5889;51.350;6.708;2023-08-06T13:27:02;3.10;;;2.20;;
11665;SDS011;5889;51.350;6.708;2023-08-06T13:29:30;3.53;;;2.40;;
11665;SDS011;5889;51.350;6.708;2023-08-06T13:31:57;4.03;;;3.00;;
11665;SDS011;5889;51.350;6.708;2023-08-06T13:34:24;4.93;;;2.57;;
11665;SDS011;5889;51.350;6.708;2023-08-06T13:36:51;4.13;;;3.10;;
11665;SDS011;5889;51.350;6.708;2023-08-06T13:39:18;5.70;;;2.90;;
11665;SDS011;5889;51.350;6.708;2023-08-06T13:41:45;4.67;;;2.83;;
11665;SDS011;5889;51.350;6.708;2023-08-06T13:59:59;9.10;;;3.33;;
11665;SDS011;5889;51.350;6.708;2023-08-06T14:02:27;6.30;;;2.70;;
11665;SDS011;5889;51.350;6.708;2023-08-06T14:04:54;5.97;;;2.90;;
11665;SDS011;5889;51.350;6.708;2023-08-06T14:07:27;5.87;;;2.97;;
11665;SDS011;5889;51.350;6.708;2023-08-06T14:10:45;3.70;;;2.63;;
11665;SDS011;5889;51.350;6.708;2023-08-06T14:13:14;3.93;;;2.77;;
11665;SDS011;5889;51.350;6.708;2023-08-06T14:34:20;4.93;;;2.73;;
11665;SDS011;5889;51.350;6.708;2023-08-06T14:37:13;4.33;;;3.00;;
11665;SDS011;5889;51.350;6.708;2023-08-06T14:40:13;4.80;;;2.60;;
11665;SDS011;5889;51.350;6.708;2023-08-06T14:43:17;4.53;;;2.57;;
11665;SDS011;5889;51.350;6.708;2023-08-06T14:46:22;3.47;;;2.37;;
11665;SDS011;5889;51.350;6.708;2023-08-06T14:48:54;3.57;;;2.53;;
11665;SDS011;5889;51.350;6.708;2023-08-06T14:51:30;5.17;;;2.70;;
11665;SDS011;5889;51.350;6.708;2023-08-06T14:53:58;4.37;;;2.60;;
11665;SDS011;5889;51.350;6.708;2023-08-06T15:14:58;2.50;;;2.30;;
11665;SDS011;5889;51.350;6.708;2023-08-06T16:04:30;2.50;;;1.37;;
11665;SDS011;5889;51.350;6.708;2023-08-06T16:08:09;3.23;;;1.63;;
11665;SDS011;5889;51.350;6.708;2023-08-06T16:11:11;1.60;;;1.30;;
11665;SDS011;5889;51.350;6.708;2023-08-06T16:14:16;3.20;;;1.50;;
11665;SDS011;5889;51.350;6.708;2023-08-06T16:16:57;2.30;;;1.20;;
11665;SDS011;5889;51.350;6.708;2023-08-06T17:08:47;3.30;;;2.00;;
11665;SDS011;5889;51.350;6.708;2023-08-06T17:11:35;2.33;;;1.73;;
11665;SDS011;5889;51.350;6.708;2023-08-06T17:14:30;2.27;;;2.00;;
11665;SDS011;5889;51.350;6.708;2023-08-06T17:20:44;2.97;;;2.23;;
11665;SDS011;5889;51.350;6.708;2023-08-06T22:30:56;9.33;;;2.60;;
11665;SDS011;5889;51.350;6.708;2023-08-06T22:33:43;15.77;;;3.30;;
11665;SDS011;5889;51.350;6.708;2023-08-06T22:36:25;8.40;;;2.50;;
11665;SDS011;5889;51.350;6.708;2023-08-06T22:39:22;12.80;;;3.10;;
11665;SDS011;5889;51.350;6.708;2023-08-06T22:42:41;11.77;;;2.90;;
11665;SDS011;5889;51.350;6.708;2023-08-06T23:28:49;10.07;;;3.00;;
11665;SDS011;5889;51.350;6.708;2023-08-06T23:31:22;6.73;;;2.77;;
11665;SDS011;5889;51.350;6.708;2023-08-06T23:33:57;9.00;;;2.93;;
11665;SDS011;5889;51.350;6.708;2023-08-06T23:36:35;11.67;;;3.20;;
11665;SDS011;5889;51.350;6.708;2023-08-06T23:39:12;8.30;;;2.40;;
11665;SDS011;5889;51.350;6.708;2023-08-06T23:42:34;7.30;;;2.90;;